FW3329 Weather Reports


Display with metric or nautical units.
time (UTC)temp
F
wind
direction
speed
MPH
gust
MPH
rain 1hr
in
rain 24hr
in
rain mn
in
humidity
%
barometer
mb
20200402201711 73 273 6.0 13.0 0.00 0.00 0.00 19 1007.6
20200402200230 73 257 5.0 14.0 0.00 0.00 0.00 19 1007.7
20200402194631 73 291 6.0 14.0 0.00 0.00 0.00 19 1007.9
20200402193101 73 238 5.0 11.0 0.00 0.00 0.00 19 1008.1
20200402191601 72 285 1.0 11.0 0.00 0.00 0.00 20 1008.4
20200402190115 71 256 5.0 14.0 0.00 0.00 0.00 20 1008.7
20200402184719 72 265 6.0 9.0 0.00 0.00 0.00 20 1008.8
20200402183100 71 211 6.0 14.0 0.00 0.00 0.00 19 1009.0
20200402181554 71 243 7.0 15.0 0.00 0.00 0.00 20 1009.3
20200402180030 70 181 4.0 14.0 0.00 0.00 0.00 20 1009.5
20200402174552 69 149 4.0 13.0 0.00 0.00 0.00 20 1009.7
20200402173035 68 207 3.0 14.0 0.00 0.00 0.00 22 1009.9
20200402171552 68 240 5.0 9.0 0.00 0.00 0.00 22 1010.0
20200402170054 67 212 6.0 12.0 0.00 0.00 0.00 23 1010.1
20200402164544 67 217 6.0 15.0 0.00 0.00 0.00 22 1010.0
20200402163029 67 221 6.0 9.0 0.00 0.00 0.00 22 1009.8
20200402161525 66 222 5.0 11.0 0.00 0.00 0.00 21 1009.8
20200402160022 65 219 3.0 10.0 0.00 0.00 0.00 25 1009.8
20200402154512 65 155 4.0 10.0 0.00 0.00 0.00 28 1009.8
20200402153017 64 204 5.0 11.0 0.00 0.00 0.00 29 1009.7
20200402151507 63 172 6.0 10.0 0.00 0.00 0.00 29 1009.8
20200402150004 62 195 4.0 9.0 0.00 0.00 0.00 31 1009.7
20200402144624 61 166 5.0 9.0 0.00 0.00 0.00 32 1009.7
20200402143109 60 136 7.0 10.0 0.00 0.00 0.00 33 1009.6
20200402141624 58 155 4.0 9.0 0.00 0.00 0.00 37 1009.6
20200402140051 55 127 4.0 9.0 0.00 0.00 0.00 42 1009.5
20200402134735 50 139 2.0 4.0 0.00 0.00 0.00 50 1009.4
20200402133127 46 109 1.0 4.0 0.00 0.00 0.00 54 1009.4
20200402131635 46 89 2.0 4.0 0.00 0.00 0.00 55 1009.1
20200402130059 46 129 2.0 4.0 0.00 0.00 0.00 54 1009.0
20200402124635 46 123 2.0 4.0 0.00 0.00 0.00 55 1008.9
20200402123053 46 127 2.0 3.0 0.00 0.00 0.00 55 1008.7
20200402121605 46 128 2.0 4.0 0.00 0.00 0.00 55 1008.5
20200402120106 46 132 2.0 4.0 0.00 0.00 0.00 54 1008.2
20200402114614 46 112 2.0 4.0 0.00 0.00 0.00 54 1008.2
20200402113049 45 123 1.0 3.0 0.00 0.00 0.00 55 1008.2
20200402111554 45 130 2.0 3.0 0.00 0.00 0.00 54 1008.1
20200402110030 45 110 1.0 2.0 0.00 0.00 0.00 53 1008.0
20200402104534 46 126 0.0 2.0 0.00 0.00 0.00 50 1008.0
20200402103128 47 120 1.0 2.0 0.00 0.00 0.00 49 1007.9
20200402101522 49 130 0.0 1.0 0.00 0.00 0.00 46 1007.9
20200402100023 51 148 1.0 4.0 0.00 0.00 0.00 44 1007.9
20200402094514 51 108 1.0 3.0 0.00 0.00 0.00 43 1008.1
20200402093028 51 132 4.0 8.0 0.00 0.00 0.00 44 1007.9
20200402091545 52 150 3.0 7.0 0.00 0.00 0.00 42 1007.6
20200402090021 53 215 3.0 9.0 0.00 0.00 0.00 41 1007.8
20200402084510 52 215 3.0 7.0 0.00 0.00 0.00 40 1008.0
20200402083008 52 146 3.0 6.0 0.00 0.00 0.00 39 1008.1
20200402081514 53 148 2.0 4.0 0.00 0.00 0.00 38 1008.3
20200402080005 53 160 0.0 3.0 0.00 0.00 0.00 37 1008.5
20200402074513 54 195 2.0 11.0 0.00 0.00 0.00 36 1008.4
20200402073224 52 132 2.0 6.0 0.00 0.00 0.00 37 1008.3
20200402071655 52 137 2.0 5.0 0.00 0.00 0.00 37 1008.2
20200402070110 51 114 1.0 4.0 0.00 0.00 0.00 39 1008.2
20200402063051 51 136 0.0 4.0 0.00 0.00 0.00 40 1008.2
20200402061613 51 104 2.0 3.0 0.00 0.00 0.00 40 1008.3
20200402060120 52 122 1.0 2.0 0.00 0.00 0.00 38 1008.3
20200402054655 53 193 1.0 5.0 0.00 0.00 0.00 37 1008.3
20200402053127 53 160 2.0 5.0 0.00 0.00 0.00 38 1008.3
20200402051631 54 170 2.0 5.0 0.00 0.00 0.00 37 1008.3
20200402050142 54 141 2.0 4.0 0.00 0.00 0.00 36 1008.2
20200402044553 55 150 2.0 6.0 0.00 0.00 0.00 34 1008.0
20200402043128 55 134 3.0 7.0 0.00 0.00 0.00 34 1007.9
20200402041601 55 116 2.0 4.0 0.00 0.00 0.00 31 1007.7
20200402040117 54 112 2.0 4.0 0.00 0.00 0.00 33 1007.7
20200402034637 54 115 2.0 3.0 0.00 0.00 0.00 32 1007.5
20200402033132 54 121 2.0 3.0 0.00 0.00 0.00 31 1007.3
20200402031552 57 112 0.0 2.0 0.00 0.00 0.00 27 1007.0
20200402030059 60 245 0.0 0.0 0.00 0.00 0.00 24 1006.6
20200402024725 61 235 0.0 4.0 0.00 0.00 0.00 24 1006.4
20200402023126 62 265 1.0 4.0 0.00 0.00 0.00 23 1006.1
20200402021611 64 233 1.0 5.0 0.00 0.00 0.00 22 1005.9
20200402020112 66 272 2.0 9.0 0.00 0.00 0.00 20 1005.6
20200402014548 67 235 3.0 11.0 0.00 0.00 0.00 19 1005.5
20200402013135 69 211 4.0 13.0 0.00 0.00 0.00 18 1005.3
20200402011610 71 248 6.0 12.0 0.00 0.00 0.00 17 1005.1
20200402004622 73 236 7.0 14.0 0.00 0.00 0.00 16 1004.9
20200402003103 75 221 8.0 15.0 0.00 0.00 0.00 15 1004.7
20200402001604 75 257 10.0 17.0 0.00 0.00 0.00 15 1004.7
20200402000323 76 246 7.0 17.0 0.00 0.00 0.00 15 1004.5
20200401234545 75 256 7.0 16.0 0.00 0.00 0.00 17 1004.5
20200401233136 75 266 4.0 18.0 0.00 0.00 0.00 15 1004.4
20200401231543 75 236 8.0 15.0 0.00 0.00 0.00 16 1004.4
20200401230147 74 219 6.0 14.0 0.00 0.00 0.00 16 1004.3
20200401224558 76 280 7.0 15.0 0.00 0.00 0.00 15 1004.3
20200401223054 77 296 8.0 14.0 0.00 0.00 0.00 14 1004.5
20200401221553 76 243 6.0 19.0 0.00 0.00 0.00 14 1004.4
20200401220115 77 291 4.0 14.0 0.00 0.00 0.00 14 1004.4
20200401214536 75 302 7.0 13.0 0.00 0.00 0.00 14 1004.5
20200401213110 75 252 5.0 15.0 0.00 0.00 0.00 15 1004.7
20200401211549 77 271 6.0 15.0 0.00 0.00 0.00 14 1004.9
20200401210042 76 254 8.0 15.0 0.00 0.00 0.00 15 1005.1
20200401204547 75 294 3.0 13.0 0.00 0.00 0.00 16 1005.1